Flight Track Log - Related Links

Times and Time Zones

All times are in EDT time to prevent confusion due to time zone crossing. See the TAM3714 flight status page for this flight to view local times or setup timezone preferences in your user account.

Time Position Orientation Groundspeed Altitude Reporting Facility
EDT Latitude Longitude Course Direction KTS MPH feet Rate Location/Type
Wed 08:23:59 PM -23.6220 -46.6600 335° Northwest  Level FlightAware ADS-B
Wed 08:26:00 PM -23.4289 -46.6928 351° North  Level Estimated
Wed 08:26:56 PM -23.6220 -46.6610 351° North  Level FlightAware ADS-B
Wed 08:27:00 PM -23.3331 -46.7090 351° North  Level Estimated
Wed 08:29:00 PM -23.4550 -46.6892 351° North  Level Estimated
Wed 08:29:41 PM -23.6200 -46.6610 351° North  Level FlightAware ADS-B
Wed 08:30:56 PM -23.6480 -46.6400 145° Southeast 170 196 3,400 2,550 Climbing FlightAware ADS-B
Wed 08:31:01 PM -23.6490 -46.6380 119° Southeast 172 198 3,400 1,200 Level FlightAware ADS-B
Wed 08:31:06 PM -23.6500 -46.6320 100° East 178 205 3,600 1,800 Climbing FlightAware ADS-B
Wed 08:31:11 PM -23.6500 -46.6280 90° East 181 208 3,700 1,920 Climbing FlightAware ADS-B
Wed 08:31:31 PM -23.6420 -46.6120 61° Northeast 194 223 4,400 2,200 Climbing FlightAware ADS-B
Wed 08:31:41 PM -23.6330 -46.6060 31° Northeast 200 230 4,800 2,667 Climbing FlightAware ADS-B
Wed 08:32:07 PM -23.6130 -46.5900 36° Northeast 200 230 6,000 2,710 Climbing FlightAware ADS-B
Wed 08:32:12 PM -23.6110 -46.5860 61° Northeast 199 229 6,200 2,769 Climbing FlightAware ADS-B
Wed 08:32:20 PM -23.6090 -46.5790 73° East 198 228 6,600 1,500 Climbing FlightAware ADS-B
Wed 08:32:40 PM -23.6050 -46.5570 79° East 223 257 6,900 1,116 Climbing FlightAware ADS-B
Wed 08:33:03 PM -23.5990 -46.5280 77° East 265 305 7,400 1,674 Climbing FlightAware ADS-B
Wed 08:33:23 PM -23.5930 -46.5010 76° East 283 326 8,100 2,700 Climbing FlightAware ADS-B
Wed 08:33:43 PM -23.5870 -46.4730 77° East 287 330 9,200 2,488 Climbing FlightAware ADS-B
Wed 08:34:04 PM -23.5810 -46.4450 77° East 298 343 9,800 1,333 Climbing FlightAware ADS-B
Wed 08:34:19 PM -23.5760 -46.4230 76° East 300 345 10,000 588 Climbing FlightAware ADS-B
Wed 08:34:55 PM -23.5640 -46.3690 76° East 305 351 10,300 971 Climbing FlightAware ADS-B
Wed 08:35:27 PM -23.5520 -46.3170 76° East 341 392 11,100 2,029 Climbing FlightAware ADS-B
Wed 08:36:03 PM -23.5390 -46.2570 77° East 352 405 12,600 2,492 Climbing FlightAware ADS-B
Wed 08:36:32 PM -23.5250 -46.2070 73° East 361 415 13,800 2,462 Climbing FlightAware ADS-B
Wed 08:36:42 PM -23.5150 -46.1920 54° Northeast 367 422 14,200 2,483 Climbing FlightAware ADS-B
Wed 08:37:01 PM -23.4870 -46.1710 35° Northeast 374 430 15,000 2,516 Climbing FlightAware ADS-B
Wed 08:37:13 PM -23.4680 -46.1650 16° North 378 435 15,500 1,875 Climbing FlightAware ADS-B
Wed 08:37:49 PM -23.4030 -46.1510 11° North 396 456 16,500 1,807 Climbing FlightAware ADS-B
Wed 08:38:36 PM -23.3210 -46.1550 357° North 401 461 18,000 2,032 Climbing FlightAware ADS-B
Wed 08:38:51 PM -23.2980 -46.1730 324° Northwest 395 455 18,600 2,000 Climbing FlightAware ADS-B
Wed 08:39:27 PM -23.2530 -46.2240 314° West 397 457 19,700 2,057 Climbing FlightAware ADS-B
Wed 08:40:01 PM -23.2100 -46.2740 313° West 403 464 21,000 2,057 Climbing FlightAware ADS-B
Wed 08:40:37 PM -23.1630 -46.3270 314° West 406 467 22,100 1,800 Climbing FlightAware ADS-B
Wed 08:41:11 PM -23.1180 -46.3790 313° West 418 481 23,100 2,087 Climbing FlightAware ADS-B
Wed 08:41:46 PM -23.0710 -46.4330 313° West 410 472 24,500 2,143 Climbing FlightAware ADS-B
Wed 08:42:21 PM -23.0260 -46.4840 314° West 411 473 25,600 1,714 Climbing FlightAware ADS-B
Wed 08:42:56 PM -22.9780 -46.5380 314° West 420 483 26,500 1,607 Climbing FlightAware ADS-B
Wed 08:43:17 PM -22.9420 -46.5640 326° Northwest 440 506 27,100 1,543 Climbing FlightAware ADS-B
Wed 08:43:31 PM -22.9150 -46.5750 339° North 450 518 27,400 1,347 Climbing FlightAware ADS-B
Wed 08:44:06 PM -22.8390 -46.5880 351° North 457 526 28,200 1,457 Climbing FlightAware ADS-B
Wed 08:44:41 PM -22.7650 -46.6010 351° North 458 527 29,100 1,457 Climbing FlightAware ADS-B
Wed 08:45:16 PM -22.6900 -46.6130 352° North 469 540 29,900 1,183 Climbing FlightAware ADS-B
Wed 08:45:52 PM -22.6100 -46.6270 351° North 468 539 30,500 930 Climbing FlightAware ADS-B
Wed 08:46:27 PM -22.5340 -46.6390 352° North 475 547 31,000 857 Climbing FlightAware ADS-B
Wed 08:47:02 PM -22.4580 -46.6510 352° North 473 544 31,500 738 Climbing FlightAware ADS-B
Wed 08:47:32 PM -22.3930 -46.6620 351° North 468 539 31,800 600 Climbing FlightAware ADS-B
Wed 08:48:12 PM -22.3060 -46.6760 352° North 475 547 32,200 640 Climbing FlightAware ADS-B
Wed 08:48:47 PM -22.2290 -46.6870 352° North 485 558 32,600 818 Climbing FlightAware ADS-B
Wed 08:49:18 PM -22.1580 -46.6980 352° North 484 557 33,100 1,114 Climbing FlightAware ADS-B
Wed 08:49:57 PM -22.0700 -46.7120 352° North 485 558 33,900 1,378 Climbing FlightAware ADS-B
Wed 08:50:32 PM -21.9950 -46.7230 352° North 471 542 34,800 1,200 Climbing FlightAware ADS-B
Wed 08:51:12 PM -21.9080 -46.7360 352° North 472 543 35,400 880 Climbing FlightAware ADS-B
Wed 08:51:47 PM -21.8270 -46.7480 352° North 484 557 35,900 960 Climbing FlightAware ADS-B
Wed 08:52:27 PM -21.7400 -46.7610 352° North 483 556 36,600 975 Climbing FlightAware ADS-B
Wed 08:53:07 PM -21.6530 -46.7740 352° North 474 545 37,200 943 Climbing FlightAware ADS-B
Wed 08:53:37 PM -21.5890 -46.7830 353° North 471 542 37,700 1,108 Climbing FlightAware ADS-B
Wed 08:54:12 PM -21.5120 -46.7940 352° North 471 542 38,400 1,040 Climbing FlightAware ADS-B
Wed 08:54:52 PM -21.4230 -46.8070 352° North 456 525 39,000 450 Climbing FlightAware ADS-B
Wed 08:55:32 PM -21.3390 -46.8200 352° North 467 537 39,000  Level FlightAware ADS-B
Wed 08:56:07 PM -21.2610 -46.8320 352° North 467 537 39,000  Level FlightAware ADS-B
Wed 08:56:43 PM -21.1840 -46.8430 352° North 467 537 39,000  Level FlightAware ADS-B
Wed 08:57:19 PM -21.1070 -46.8540 352° North 468 539 39,000  Level FlightAware ADS-B
Wed 08:57:53 PM -21.0320 -46.8650 352° North 469 540 39,000  Level FlightAware ADS-B
Wed 08:58:29 PM -20.9550 -46.8760 352° North 471 542 39,000  Level FlightAware ADS-B
Wed 08:59:05 PM -20.8760 -46.8880 352° North 472 543 39,000  Level FlightAware ADS-B
Wed 08:59:41 PM -20.7990 -46.8990 352° North 473 544 39,000  Level FlightAware ADS-B
Wed 09:00:13 PM -20.7290 -46.9090 352° North 475 547 39,000  Level FlightAware ADS-B
Wed 09:00:49 PM -20.6500 -46.9210 352° North 475 547 39,000  Level FlightAware ADS-B
Wed 09:01:25 PM -20.5710 -46.9320 353° North 475 547 39,000  Level FlightAware ADS-B
Wed 09:01:57 PM -20.5030 -46.9420 352° North 475 547 39,000  Level FlightAware ADS-B
Wed 09:02:33 PM -20.4220 -46.9540 352° North 474 545 39,000  Level FlightAware ADS-B
Wed 09:03:09 PM -20.3440 -46.9660 352° North 471 542 39,000  Level FlightAware ADS-B
Wed 09:03:45 PM -20.2670 -46.9770 352° North 469 540 39,000  Level FlightAware ADS-B
Wed 09:04:17 PM -20.1970 -46.9870 352° North 467 537 39,000  Level FlightAware ADS-B
Wed 09:04:53 PM -20.1230 -47.0030 349° North 450 518 39,000  Level FlightAware ADS-B
Wed 09:05:07 PM -20.0980 -47.0160 334° Northwest 437 503 39,000  Level FlightAware ADS-B
Wed 09:05:43 PM -20.0380 -47.0600 325° Northwest 430 495 39,000  Level FlightAware ADS-B
Wed 09:06:17 PM -19.9820 -47.1010 325° Northwest 430 495 39,000  Level FlightAware ADS-B
Wed 09:06:53 PM -19.9230 -47.1440 326° Northwest 430 495 39,000  Level FlightAware ADS-B
Wed 09:07:27 PM -19.8680 -47.1850 325° Northwest 431 496 39,000  Level FlightAware ADS-B
Wed 09:08:03 PM -19.8080 -47.2280 326° Northwest 433 498 39,000  Level FlightAware ADS-B
Wed 09:08:39 PM -19.7480 -47.2730 325° Northwest 434 499 39,000  Level FlightAware ADS-B
Wed 09:09:11 PM -19.6970 -47.3100 326° Northwest 434 499 39,000  Level FlightAware ADS-B
Wed 09:09:47 PM -19.6350 -47.3550 326° Northwest 435 501 39,000  Level FlightAware ADS-B
Wed 09:10:24 PM -19.5750 -47.3980 326° Northwest 436 502 39,000  Level FlightAware ADS-B
Wed 09:10:55 PM -19.5230 -47.4370 325° Northwest 436 502 39,000  Level FlightAware ADS-B
Wed 09:11:34 PM -19.4610 -47.4820 326° Northwest 436 502 39,000  Level FlightAware ADS-B
Wed 09:12:17 PM -19.3860 -47.5360 326° Northwest 434 499 39,000  Level FlightAware ADS-B
Wed 09:12:49 PM -19.3340 -47.5730 326° Northwest 433 498 39,000  Level FlightAware ADS-B
Wed 09:13:25 PM -19.2730 -47.6180 325° Northwest 432 497 39,000  Level FlightAware ADS-B
Wed 09:14:00 PM -19.2170 -47.6580 326° Northwest 432 497 39,000  Level FlightAware ADS-B
Wed 09:14:37 PM -19.1560 -47.7030 325° Northwest 432 497 39,000  Level FlightAware ADS-B
Wed 09:15:09 PM -19.1050 -47.7400 326° Northwest 434 499 39,000  Level FlightAware ADS-B
Wed 09:15:45 PM -19.0420 -47.7850 326° Northwest 436 502 39,000  Level FlightAware ADS-B
Wed 09:16:21 PM -18.9840 -47.8270 326° Northwest 436 502 39,000  Level FlightAware ADS-B
Wed 09:16:57 PM -18.9210 -47.8720 326° Northwest 437 503 39,000  Level FlightAware ADS-B
Wed 09:17:29 PM -18.8670 -47.9110 326° Northwest 437 503 39,000  Level FlightAware ADS-B
Wed 09:18:05 PM -18.8070 -47.9540 326° Northwest 437 503 39,000  Level FlightAware ADS-B
Wed 09:18:41 PM -18.7460 -47.9980 326° Northwest 437 503 39,000  Level FlightAware ADS-B
Wed 09:19:17 PM -18.6870 -48.0410 325° Northwest 437 503 39,000  Level FlightAware ADS-B
Wed 09:19:49 PM -18.6330 -48.0800 326° Northwest 438 504 39,000  Level FlightAware ADS-B
Wed 09:20:25 PM -18.5730 -48.1220 326° Northwest 439 505 39,000  Level FlightAware ADS-B
Wed 09:20:59 PM -18.5160 -48.1640 325° Northwest 440 506 39,000  Level FlightAware ADS-B
Wed 09:21:31 PM -18.4620 -48.2020 326° Northwest 441 507 39,000  Level FlightAware ADS-B
Wed 09:22:11 PM -18.3980 -48.2480 326° Northwest 442 509 39,000  Level FlightAware ADS-B
Wed 09:22:47 PM -18.3340 -48.2930 326° Northwest 443 510 39,000  Level FlightAware ADS-B
Wed 09:23:18 PM -18.2830 -48.3300 325° Northwest 442 509 39,000  Level FlightAware ADS-B
Wed 09:23:56 PM -18.2160 -48.3780 326° Northwest 441 507 39,000  Level FlightAware ADS-B
Wed 09:24:32 PM -18.1550 -48.4210 326° Northwest 438 504 39,000  Level FlightAware ADS-B
Wed 09:25:17 PM -18.0810 -48.4740 326° Northwest 434 499 39,000  Level FlightAware ADS-B
Wed 09:25:55 PM -18.0180 -48.5190 326° Northwest 431 496 39,000  Level FlightAware ADS-B
Wed 09:26:23 PM -17.9680 -48.5430 335° Northwest 452 520 39,000 -500 Level FlightAware ADS-B
Wed 09:26:43 PM -17.9220 -48.5500 352° North 472 543 38,600 -1,837 Descending FlightAware ADS-B
Wed 09:27:12 PM -17.8570 -48.5420 North 481 554 37,500 -2,531 Descending FlightAware ADS-B
Wed 09:27:47 PM -17.7820 -48.5320 North 480 552 35,900 -2,824 Descending FlightAware ADS-B
Wed 09:28:20 PM -17.7080 -48.5230 North 479 551 34,300 -2,696 Descending FlightAware ADS-B
Wed 09:28:56 PM -17.6280 -48.5130 North 476 548 32,800 -2,333 Descending FlightAware ADS-B
Wed 09:29:32 PM -17.5510 -48.5030 North 468 539 31,500 -2,229 Descending FlightAware ADS-B
Wed 09:30:06 PM -17.4780 -48.4940 North 462 532 30,200 -2,053 Descending FlightAware ADS-B
Wed 09:30:48 PM -17.3980 -48.4840 North 455 524 28,900 -1,692 Descending FlightAware ADS-B
Wed 09:31:24 PM -17.3220 -48.4740 North 432 497 28,000 -1,455 Descending FlightAware ADS-B
Wed 09:31:54 PM -17.2640 -48.4660 North 414 476 27,300 -1,636 Descending FlightAware ADS-B
Wed 09:32:30 PM -17.1960 -48.4580 North 404 465 26,200 -2,080 Descending FlightAware ADS-B
Wed 09:33:09 PM -17.1220 -48.4480 North 400 460 24,700 -2,174 Descending FlightAware ADS-B
Wed 09:33:39 PM -17.0670 -48.4410 North 398 458 23,700 -2,000 Descending FlightAware ADS-B
Wed 09:34:15 PM -17.0030 -48.4330 North 391 450 22,500 -1,714 Descending FlightAware ADS-B
Wed 09:34:49 PM -16.9450 -48.4260 North 379 436 21,700 -1,701 Descending FlightAware ADS-B
Wed 09:35:22 PM -16.8800 -48.4280 358° North 371 427 20,600 -1,808 Descending FlightAware ADS-B
Wed 09:36:02 PM -16.8130 -48.4360 353° North 363 418 19,500 -1,600 Descending FlightAware ADS-B
Wed 09:36:37 PM -16.7560 -48.4410 355° North 354 407 18,600 -1,629 Descending FlightAware ADS-B
Wed 09:37:12 PM -16.6980 -48.4470 354° North 347 399 17,600 -1,662 Descending FlightAware ADS-B
Wed 09:37:42 PM -16.6550 -48.4550 350° North 343 395 16,800 -1,840 Descending FlightAware ADS-B
Wed 09:38:27 PM -16.5800 -48.4710 348° North 342 394 15,300 -1,765 Descending FlightAware ADS-B
Wed 09:39:07 PM -16.5180 -48.4840 349° North 338 389 14,300 -1,606 Descending FlightAware ADS-B
Wed 09:39:38 PM -16.4720 -48.4930 349° North 339 390 13,400 -1,385 Descending FlightAware ADS-B
Wed 09:40:12 PM -16.4200 -48.5040 349° North 322 371 12,800 -1,304 Descending FlightAware ADS-B
Wed 09:40:47 PM -16.3740 -48.5130 349° North 321 369 11,900 -1,417 Descending FlightAware ADS-B
Wed 09:41:24 PM -16.3210 -48.5240 349° North 309 356 11,100 -1,397 Descending FlightAware ADS-B
Wed 09:42:00 PM -16.2700 -48.5350 348° North 306 352 10,200 -1,143 Descending FlightAware ADS-B
Wed 09:42:27 PM -16.2310 -48.5260 12° North 292 336 9,900 -649 Descending FlightAware ADS-B
Wed 09:42:37 PM -16.2220 -48.5150 50° Northeast 288 331 9,800 -692 Descending FlightAware ADS-B
Wed 09:42:53 PM -16.2110 -48.4980 56° Northeast 284 327 9,600 -600 Descending FlightAware ADS-B
Wed 09:43:17 PM -16.1940 -48.4700 58° Northeast 281 323 9,400 -529 Descending FlightAware ADS-B
Wed 09:43:27 PM -16.1860 -48.4570 57° Northeast 281 323 9,300 -514 Descending FlightAware ADS-B
Wed 09:43:52 PM -16.1690 -48.4300 57° Northeast 279 321 9,100 -686 Descending FlightAware ADS-B
Wed 09:44:02 PM -16.1620 -48.4190 56° Northeast 277 319 8,900 -600 Descending FlightAware ADS-B
Wed 09:44:22 PM -16.1480 -48.3970 56° Northeast 272 313 8,800 -652 Descending FlightAware ADS-B
Wed 09:44:48 PM -16.1310 -48.3700 57° Northeast 266 306 8,400 -652 Descending FlightAware ADS-B
Wed 09:45:08 PM -16.1170 -48.3480 56° Northeast 252 290 8,300 -462 Descending FlightAware ADS-B
Wed 09:45:27 PM -16.1050 -48.3290 57° Northeast 239 275 8,100 -682 Descending FlightAware ADS-B
Wed 09:45:52 PM -16.0910 -48.3050 59° Northeast 231 266 7,800 -750 Descending FlightAware ADS-B
Wed 09:46:07 PM -16.0820 -48.2920 54° Northeast 224 258 7,600 -514 Descending FlightAware ADS-B
Wed 09:46:27 PM -16.0710 -48.2730 59° Northeast 226 260 7,500 -450 Descending FlightAware ADS-B
Wed 09:46:47 PM -16.0600 -48.2550 58° Northeast 225 259 7,300 -514 Descending FlightAware ADS-B
Wed 09:47:02 PM -16.0510 -48.2410 56° Northeast 225 259 7,200 -514 Descending FlightAware ADS-B
Wed 09:47:22 PM -16.0400 -48.2230 58° Northeast 225 259 7,000 -400 Descending FlightAware ADS-B
Wed 09:47:32 PM -16.0340 -48.2140 55° Northeast 225 259 7,000 -333 Level FlightAware ADS-B
Wed 09:47:58 PM -16.0200 -48.1920 56° Northeast 225 259 6,800 -343 Descending FlightAware ADS-B
Wed 09:48:07 PM -16.0140 -48.1830 55° Northeast 225 259 6,800  Level FlightAware ADS-B
Wed 09:48:32 PM -16.0000 -48.1600 58° Northeast 222 255 6,800  Level FlightAware ADS-B
Wed 09:48:48 PM -15.9910 -48.1470 54° Northeast 223 257 6,800 -300 Level FlightAware ADS-B
Wed 09:48:52 PM -15.9870 -48.1430 44° Northeast 226 260 6,700 -667 Descending FlightAware ADS-B
Wed 09:48:57 PM -15.9830 -48.1400 36° Northeast 229 264 6,700 -400 Level FlightAware ADS-B
Wed 09:49:07 PM -15.9730 -48.1350 26° Northeast 229 264 6,600 -774 Descending FlightAware ADS-B
Wed 09:49:28 PM -15.9530 -48.1310 11° North 224 258 6,300 -750 Descending FlightAware ADS-B
Wed 09:49:47 PM -15.9320 -48.1250 15° North 226 260 6,100 -353 Descending FlightAware ADS-B
Wed 09:50:02 PM -15.9180 -48.1200 19° North 231 266 6,100  Level FlightAware ADS-B
Wed 09:50:22 PM -15.8990 -48.1110 24° Northeast 226 260 6,100 -200 Level FlightAware ADS-B
Wed 09:50:32 PM -15.8940 -48.1020 60° Northeast 219 252 6,000 -400 Descending FlightAware ADS-B
Wed 09:50:37 PM -15.8920 -48.0970 67° East 214 246 6,000 -545 Level FlightAware ADS-B
Wed 09:50:43 PM -15.8910 -48.0910 80° East 211 243 5,900 -774 Descending FlightAware ADS-B
Wed 09:51:08 PM -15.8890 -48.0670 85° East 195 224 5,600 -955 Descending FlightAware ADS-B
Wed 09:51:27 PM -15.8880 -48.0500 87° East 177 204 5,200 -1,077 Descending FlightAware ADS-B
Wed 09:51:47 PM -15.8870 -48.0340 86° East 155 178 4,900 -750 Descending FlightAware ADS-B
Wed 09:52:07 PM -15.8860 -48.0200 86° East 140 161 4,700 -686 Descending FlightAware ADS-B
Wed 09:52:22 PM -15.8850 -48.0110 83° East 138 159 4,500 -667 Descending FlightAware ADS-B
Wed 09:52:43 PM -15.8840 -47.9970 86° East 133 153 4,300 -667 Descending FlightAware ADS-B
Wed 09:52:58 PM -15.8840 -47.9880 90° East 134 154 4,100 -706 Descending FlightAware ADS-B
Wed 09:53:17 PM -15.8830 -47.9750 85° East 134 154 3,900 -615 Descending FlightAware ADS-B
Wed 09:53:37 PM -15.8820 -47.9620 85° East 133 153 3,700 -686 Descending FlightAware ADS-B
Wed 09:53:52 PM -15.8820 -47.9520 90° East 134 154 3,500 -750 Descending FlightAware ADS-B
Wed 09:54:17 PM -15.8800 -47.9360 83° East 137 158 3,200 -310 Descending FlightAware ADS-B
Wed 09:54:50 PM -15.8790 -47.9180 87° East 133 153 3,200  Level FlightAware ADS-B
Wed 09:57:00 PM -15.8626 -47.9127 17° North  Level Estimated
Wed 09:58:00 PM -15.8626 -47.9127 128° Southeast  Level Estimated

Login

Don't have an account? Register now (free) for customized features, flight alerts, and more!